Time;durP1;ratioP1;P1;durP2;ratioP2;P2;SDS_P1;SDS_P2;PMS_P1;PMS_P2;Temp;Humidity;BMP_temperature;BMP_pressure;BME280_temperature;BME280_humidity;BME280_pressure;Samples;Min_cycle;Max_cycle;Signal;HPM_P1;HPM_P2
2023/05/08 00:01:41;;;;;;;59.13;36.72;;;;;;;;;;5069181;28;20025;-76
2023/05/08 00:04:07;;;;;;;57.00;32.00;;;;;;;;;;5058973;28;20016;-78
2023/05/08 00:06:33;;;;;;;44.92;25.08;;;;;;;;;;5067535;28;20053;-78
2023/05/08 00:08:59;;;;;;;42.42;26.90;;;;;;;;;;5070649;28;20013;-78
2023/05/08 00:11:25;;;;;;;38.25;23.88;;;;;;;;;;5066975;28;20485;-76
2023/05/08 00:13:51;;;;;;;39.67;23.95;;;;;;;;;;5061470;28;20048;-78
2023/05/08 00:16:17;;;;;;;48.15;23.50;;;;;;;;;;5070143;28;20088;-76
2023/05/08 00:18:44;;;;;;;47.58;25.63;;;;;;;;;;5068873;28;20029;-76
2023/05/08 00:21:10;;;;;;;54.10;29.35;;;;;;;;;;5071453;28;20017;-77
2023/05/08 00:23:36;;;;;;;71.28;27.85;;;;;;;;;;5072243;28;20038;-77
2023/05/08 00:26:02;;;;;;;83.97;30.33;;;;;;;;;;5061791;28;20059;-78
2023/05/08 00:28:28;;;;;;;56.08;33.83;;;;;;;;;;5074457;28;20020;-77
2023/05/08 00:30:54;;;;;;;63.65;28.27;;;;;;;;;;5068127;28;20089;-76
2023/05/08 00:33:20;;;;;;;49.50;25.55;;;;;;;;;;5058091;28;20028;-77
2023/05/08 00:35:46;;;;;;;51.58;27.40;;;;;;;;;;5071243;28;20014;-76
2023/05/08 00:38:12;;;;;;;58.00;31.27;;;;;;;;;;5066806;28;20029;-76
2023/05/08 00:40:54;;;;;;;65.15;33.05;;;;;;;;;;5086228;28;20402;-78
2023/05/08 00:43:24;;;;;;;71.40;34.75;;;;;;;;;;5076563;28;20029;-78
2023/05/08 00:45:51;;;;;;;70.88;33.15;;;;;;;;;;5079015;28;20033;-79
2023/05/08 00:48:17;;;;;;;56.17;28.80;;;;;;;;;;5076529;28;20033;-78
2023/05/08 00:50:43;;;;;;;65.32;31.55;;;;;;;;;;5076946;28;20047;-78
2023/05/08 00:53:11;;;;;;;137.13;45.05;;;;;;;;;;5077138;28;20048;-79
2023/05/08 00:55:38;;;;;;;59.75;33.08;;;;;;;;;;5076167;28;20020;-78
2023/05/08 00:58:04;;;;;;;78.78;35.08;;;;;;;;;;5077747;28;20059;-78
2023/05/08 01:00:31;;;;;;;109.35;43.55;;;;;;;;;;5077597;28;20033;-78
2023/05/08 01:02:59;;;;;;;93.70;42.95;;;;;;;;;;5079870;28;20059;-78
2023/05/08 01:05:26;;;;;;;96.47;41.65;;;;;;;;;;5076268;28;20025;-79
2023/05/08 01:07:52;;;;;;;42.90;25.05;;;;;;;;;;5076553;28;20076;-79
2023/05/08 01:10:18;;;;;;;37.42;24.40;;;;;;;;;;5076217;28;20021;-78
2023/05/08 01:12:58;;;;;;;40.85;24.40;;;;;;;;;;5078134;28;20024;-78
2023/05/08 01:15:29;;;;;;;34.17;22.02;;;;;;;;;;5076828;28;20361;-78
2023/05/08 01:18:07;;;;;;;41.63;24.88;;;;;;;;;;5076469;28;20024;-78
2023/05/08 01:20:43;;;;;;;44.08;25.17;;;;;;;;;;5077449;28;20105;-77
2023/05/08 01:23:22;;;;;;;40.30;23.15;;;;;;;;;;5075467;28;20044;-79
2023/05/08 01:26:08;;;;;;;50.58;27.27;;;;;;;;;;5075093;28;20020;-78
2023/05/08 01:28:54;;;;;;;43.75;26.77;;;;;;;;;;5063505;28;20068;-79
2023/05/08 01:31:29;;;;;;;34.47;23.27;;;;;;;;;;5039543;28;20025;-78
2023/05/08 01:33:55;;;;;;;31.75;20.25;;;;;;;;;;5075847;28;20032;-78
2023/05/08 01:36:29;;;;;;;28.35;19.27;;;;;;;;;;5076551;28;20025;-79
2023/05/08 01:39:01;;;;;;;37.90;20.80;;;;;;;;;;5074987;28;20025;-77
2023/05/08 01:41:29;;;;;;;32.10;20.40;;;;;;;;;;5074698;28;20051;-78
2023/05/08 01:44:16;;;;;;;38.25;23.17;;;;;;;;;;5077193;28;20107;-78
2023/05/08 01:46:44;;;;;;;32.33;21.80;;;;;;;;;;5075637;28;20041;-77
2023/05/08 01:49:20;;;;;;;37.17;20.60;;;;;;;;;;5075438;28;20037;-77
2023/05/08 01:51:48;;;;;;;34.88;21.30;;;;;;;;;;5067875;28;20021;-77
2023/05/08 01:54:21;;;;;;;37.00;22.13;;;;;;;;;;5061971;28;20036;-76
2023/05/08 01:56:48;;;;;;;38.05;22.35;;;;;;;;;;5063330;28;20025;-77
2023/05/08 01:59:16;;;;;;;42.10;22.13;;;;;;;;;;5060364;28;20195;-79
2023/05/08 02:01:43;;;;;;;35.88;20.90;;;;;;;;;;5061504;28;20076;-78
2023/05/08 02:04:09;;;;;;;26.45;16.98;;;;;;;;;;5061728;28;20025;-78
2023/05/08 02:06:37;;;;;;;24.40;18.48;;;;;;;;;;5048265;28;20017;-79
2023/05/08 02:09:03;;;;;;;28.63;20.15;;;;;;;;;;5061019;28;20036;-78
2023/05/08 02:11:30;;;;;;;32.72;20.27;;;;;;;;;;5062628;28;20044;-80
2023/05/08 02:13:57;;;;;;;26.50;17.70;;;;;;;;;;5060409;28;20030;-78
2023/05/08 02:16:24;;;;;;;29.75;19.17;;;;;;;;;;5061345;28;20053;-77
2023/05/08 02:18:54;;;;;;;38.10;22.13;;;;;;;;;;5061538;28;20041;-79
2023/05/08 02:21:22;;;;;;;36.28;21.38;;;;;;;;;;5062731;28;20029;-79
2023/05/08 02:23:48;;;;;;;35.97;21.80;;;;;;;;;;5063349;28;20049;-79
2023/05/08 02:26:15;;;;;;;32.13;20.35;;;;;;;;;;5060097;28;20033;-79
2023/05/08 02:28:41;;;;;;;41.35;20.50;;;;;;;;;;5059903;28;20093;-79
2023/05/08 02:31:08;;;;;;;35.38;21.05;;;;;;;;;;5061378;28;20089;-78
2023/05/08 02:33:35;;;;;;;37.15;19.85;;;;;;;;;;5062417;28;20029;-80
2023/05/08 02:36:02;;;;;;;39.03;20.67;;;;;;;;;;5051288;28;20052;-79
2023/05/08 02:38:29;;;;;;;43.38;23.38;;;;;;;;;;5060363;28;20031;-78
2023/05/08 02:40:57;;;;;;;63.70;25.98;;;;;;;;;;5048379;28;20033;-80
2023/05/08 02:43:24;;;;;;;58.80;25.75;;;;;;;;;;5060325;28;20017;-79
2023/05/08 02:45:57;;;;;;;49.90;24.48;;;;;;;;;;5060509;28;20206;-80
2023/05/08 02:48:32;;;;;;;44.80;22.88;;;;;;;;;;5061591;28;20034;-79
2023/05/08 02:51:14;;;;;;;52.85;24.52;;;;;;;;;;5059765;28;21142;-79
2023/05/08 02:53:46;;;;;;;37.80;21.63;;;;;;;;;;5048878;28;20029;-79
2023/05/08 02:56:18;;;;;;;53.92;24.17;;;;;;;;;;5060996;28;20032;-79
2023/05/08 02:58:48;;;;;;;47.88;23.50;;;;;;;;;;5061370;28;20021;-79
2023/05/08 03:01:24;;;;;;;53.42;25.25;;;;;;;;;;5061105;28;20029;-79
2023/05/08 03:03:55;;;;;;;46.60;23.38;;;;;;;;;;5059643;28;20051;-79
2023/05/08 03:06:22;;;;;;;42.00;22.30;;;;;;;;;;5059450;28;20038;-79
2023/05/08 03:08:48;;;;;;;39.15;21.30;;;;;;;;;;5059724;28;20017;-80
2023/05/08 03:11:17;;;;;;;67.10;28.42;;;;;;;;;;5060814;28;20052;-79
2023/05/08 03:13:44;;;;;;;59.28;26.80;;;;;;;;;;5059692;28;20033;-78
2023/05/08 03:16:14;;;;;;;51.78;26.17;;;;;;;;;;5060770;28;20029;-78
2023/05/08 03:19:08;;;;;;;64.80;30.08;;;;;;;;;;5060554;28;20067;-79
2023/05/08 03:21:36;;;;;;;68.95;31.40;;;;;;;;;;5040659;28;20036;-79
2023/05/08 03:24:03;;;;;;;63.53;30.27;;;;;;;;;;5061649;28;20052;-76
2023/05/08 03:26:32;;;;;;;63.88;28.63;;;;;;;;;;5059830;28;20029;-79
2023/05/08 03:28:58;;;;;;;47.40;24.88;;;;;;;;;;5058192;28;20030;-79
2023/05/08 03:31:25;;;;;;;43.80;24.63;;;;;;;;;;5060725;28;20021;-79
2023/05/08 03:33:53;;;;;;;51.30;25.38;;;;;;;;;;5062876;28;20049;-79
2023/05/08 03:36:20;;;;;;;40.58;24.63;;;;;;;;;;5060101;28;20040;-80
2023/05/08 03:38:46;;;;;;;49.03;25.98;;;;;;;;;;5060617;28;20032;-79
2023/05/08 03:41:12;;;;;;;57.33;26.08;;;;;;;;;;5060994;28;20031;-79
2023/05/08 03:43:38;;;;;;;53.83;26.15;;;;;;;;;;5060055;28;20097;-79
2023/05/08 03:46:08;;;;;;;41.25;25.45;;;;;;;;;;5058982;28;20056;-79
2023/05/08 03:48:34;;;;;;;60.90;28.98;;;;;;;;;;5058823;28;20040;-77
2023/05/08 03:51:01;;;;;;;49.97;26.75;;;;;;;;;;5061147;28;20047;-78
2023/05/08 03:53:29;;;;;;;46.45;25.95;;;;;;;;;;5060865;28;20064;-79
2023/05/08 03:55:57;;;;;;;45.63;23.90;;;;;;;;;;5061991;28;20021;-80
2023/05/08 03:58:44;;;;;;;47.05;26.70;;;;;;;;;;5059208;28;20025;-79
2023/05/08 04:01:21;;;;;;;41.83;24.20;;;;;;;;;;5060678;28;20059;-80
2023/05/08 04:04:06;;;;;;;48.78;27.02;;;;;;;;;;5060664;28;20101;-77
2023/05/08 04:06:35;;;;;;;43.45;25.85;;;;;;;;;;5058226;28;20032;-77
2023/05/08 04:09:16;;;;;;;47.78;26.33;;;;;;;;;;5060500;28;20033;-77
2023/05/08 04:11:42;;;;;;;54.40;27.02;;;;;;;;;;5059872;28;20032;-78
2023/05/08 04:14:13;;;;;;;45.75;27.00;;;;;;;;;;5059728;28;20021;-80
2023/05/08 04:16:47;;;;;;;55.40;29.88;;;;;;;;;;5057803;28;20049;-78
2023/05/08 04:19:16;;;;;;;58.65;30.02;;;;;;;;;;5058665;28;20037;-77
2023/05/08 04:21:42;;;;;;;47.80;27.63;;;;;;;;;;5059415;28;20048;-78
2023/05/08 04:24:11;;;;;;;46.72;28.17;;;;;;;;;;5060830;28;20029;-79
2023/05/08 04:26:37;;;;;;;47.83;27.88;;;;;;;;;;5059433;28;20065;-78
2023/05/08 04:29:05;;;;;;;44.83;26.23;;;;;;;;;;5059100;28;20029;-78
2023/05/08 04:31:33;;;;;;;52.00;27.60;;;;;;;;;;5060908;28;20013;-78
2023/05/08 04:33:59;;;;;;;45.65;26.38;;;;;;;;;;5061871;28;21112;-78
2023/05/08 04:36:28;;;;;;;49.70;29.38;;;;;;;;;;5046299;28;20033;-77
2023/05/08 04:38:54;;;;;;;48.20;28.55;;;;;;;;;;5057827;28;20097;-78
2023/05/08 04:41:20;;;;;;;60.17;31.20;;;;;;;;;;5060082;28;20021;-77
2023/05/08 04:43:46;;;;;;;43.55;26.67;;;;;;;;;;5058188;28;20139;-77
2023/05/08 04:46:12;;;;;;;53.47;31.67;;;;;;;;;;5062348;28;20037;-77
2023/05/08 04:48:38;;;;;;;47.20;26.23;;;;;;;;;;5058330;28;20093;-77
2023/05/08 04:51:05;;;;;;;52.45;31.98;;;;;;;;;;5061018;28;20031;-78
2023/05/08 04:53:31;;;;;;;49.03;29.65;;;;;;;;;;5049453;28;20052;-78
2023/05/08 04:55:58;;;;;;;43.65;28.15;;;;;;;;;;5059568;28;20041;-77
2023/05/08 04:58:24;;;;;;;47.97;29.45;;;;;;;;;;5059858;28;20030;-76
2023/05/08 05:00:50;;;;;;;44.20;26.80;;;;;;;;;;5060107;28;20068;-78
2023/05/08 05:03:16;;;;;;;59.47;30.92;;;;;;;;;;5059469;28;20017;-78
2023/05/08 05:05:42;;;;;;;48.67;29.77;;;;;;;;;;5060424;28;20047;-77
2023/05/08 05:08:11;;;;;;;48.88;30.60;;;;;;;;;;5060816;28;20021;-77
2023/05/08 05:10:38;;;;;;;37.92;24.88;;;;;;;;;;5058787;28;20041;-77
2023/05/08 05:13:07;;;;;;;40.63;26.20;;;;;;;;;;5061745;28;21164;-77
2023/05/08 05:15:37;;;;;;;45.57;29.63;;;;;;;;;;5059406;28;20093;-77
2023/05/08 05:18:03;;;;;;;43.20;27.73;;;;;;;;;;5059401;28;20009;-77
2023/05/08 05:20:29;;;;;;;46.88;29.55;;;;;;;;;;5059161;28;20072;-76
2023/05/08 05:22:56;;;;;;;42.55;27.92;;;;;;;;;;5061540;28;20032;-77
2023/05/08 05:25:22;;;;;;;47.47;28.15;;;;;;;;;;5057766;28;20072;-77
2023/05/08 05:27:48;;;;;;;37.57;26.47;;;;;;;;;;5063223;28;20029;-77
2023/05/08 05:30:14;;;;;;;44.55;27.98;;;;;;;;;;5063292;28;20021;-78
2023/05/08 05:32:41;;;;;;;43.50;26.63;;;;;;;;;;5060756;28;20043;-77
2023/05/08 05:35:07;;;;;;;45.70;28.80;;;;;;;;;;5063468;28;20021;-78
2023/05/08 05:37:36;;;;;;;38.83;26.65;;;;;;;;;;5062968;28;20112;-77
2023/05/08 05:40:02;;;;;;;46.22;30.40;;;;;;;;;;5064575;28;20032;-77
2023/05/08 05:42:28;;;;;;;38.08;27.50;;;;;;;;;;5062834;28;20048;-77
2023/05/08 05:44:57;;;;;;;46.17;29.00;;;;;;;;;;5065744;28;20055;-78
2023/05/08 05:47:24;;;;;;;41.15;25.80;;;;;;;;;;5062532;28;21062;-77
2023/05/08 05:49:50;;;;;;;34.90;25.73;;;;;;;;;;5062413;28;20089;-79
2023/05/08 05:52:16;;;;;;;37.00;26.08;;;;;;;;;;5062811;28;20017;-77
2023/05/08 05:54:42;;;;;;;31.65;23.80;;;;;;;;;;5063432;28;20023;-77
2023/05/08 05:57:08;;;;;;;29.63;23.05;;;;;;;;;;5063467;28;20021;-78
2023/05/08 05:59:34;;;;;;;34.90;25.13;;;;;;;;;;5063154;28;20033;-77
2023/05/08 06:02:01;;;;;;;31.98;25.48;;;;;;;;;;5064725;28;20026;-77
2023/05/08 06:04:27;;;;;;;32.65;24.08;;;;;;;;;;5062613;28;20044;-78
2023/05/08 06:06:53;;;;;;;32.15;25.85;;;;;;;;;;5063773;28;20009;-77
2023/05/08 06:09:19;;;;;;;29.35;20.88;;;;;;;;;;5063760;28;20048;-77
2023/05/08 06:11:46;;;;;;;30.70;23.13;;;;;;;;;;5062094;28;20044;-76
2023/05/08 06:14:12;;;;;;;29.35;21.88;;;;;;;;;;5063071;28;20027;-78
2023/05/08 06:16:38;;;;;;;27.83;22.00;;;;;;;;;;5061323;28;20029;-77
2023/05/08 06:19:04;;;;;;;34.83;25.33;;;;;;;;;;5061784;28;20052;-78
2023/05/08 06:21:30;;;;;;;34.92;26.80;;;;;;;;;;5062259;28;20018;-78
2023/05/08 06:23:56;;;;;;;26.52;20.77;;;;;;;;;;5062714;28;20033;-77
2023/05/08 06:26:22;;;;;;;25.35;21.05;;;;;;;;;;5062494;28;20071;-77
2023/05/08 06:28:48;;;;;;;25.60;21.65;;;;;;;;;;5062162;28;20025;-77
2023/05/08 06:31:14;;;;;;;27.52;19.17;;;;;;;;;;5051445;28;20055;-77
2023/05/08 06:33:40;;;;;;;25.38;21.38;;;;;;;;;;5061511;28;21446;-77
2023/05/08 06:36:06;;;;;;;22.40;20.00;;;;;;;;;;5060493;28;20025;-77
2023/05/08 06:38:32;;;;;;;21.38;17.80;;;;;;;;;;5061379;28;20041;-77
2023/05/08 06:40:58;;;;;;;20.20;17.77;;;;;;;;;;5059501;28;20025;-77
2023/05/08 06:43:24;;;;;;;26.02;17.85;;;;;;;;;;5061575;28;20033;-78
2023/05/08 06:45:51;;;;;;;20.58;15.27;;;;;;;;;;5059842;28;20017;-78
2023/05/08 06:48:18;;;;;;;22.33;18.30;;;;;;;;;;5059065;28;20037;-76
2023/05/08 06:50:44;;;;;;;17.75;15.80;;;;;;;;;;5061835;28;20017;-78
2023/05/08 06:53:10;;;;;;;15.68;13.60;;;;;;;;;;5059611;28;20021;-77
2023/05/08 06:55:36;;;;;;;20.73;14.43;;;;;;;;;;5062085;28;20056;-77
2023/05/08 06:58:02;;;;;;;17.08;14.50;;;;;;;;;;5062733;28;20044;-76
2023/05/08 07:00:28;;;;;;;15.98;13.88;;;;;;;;;;5062565;28;20022;-78
2023/05/08 07:02:54;;;;;;;19.17;13.65;;;;;;;;;;5059558;28;20017;-78
2023/05/08 07:05:20;;;;;;;17.88;15.02;;;;;;;;;;5062917;28;20028;-77
2023/05/08 07:07:53;;;;;;;20.30;15.45;;;;;;;;;;5058308;28;20152;-79
2023/05/08 07:10:21;;;;;;;19.30;14.55;;;;;;;;;;5060121;28;20544;-77
2023/05/08 07:12:47;;;;;;;21.38;15.70;;;;;;;;;;5043584;28;20025;-79
2023/05/08 07:15:16;;;;;;;16.92;13.20;;;;;;;;;;5060539;28;20029;-77
2023/05/08 07:18:02;;;;;;;15.05;13.02;;;;;;;;;;5060177;28;20029;-79
2023/05/08 07:20:28;;;;;;;14.20;12.73;;;;;;;;;;5049218;28;20069;-77
2023/05/08 07:25:38;;;;;;;13.25;11.93;;;;;;;;;;5058829;28;20056;-77
2023/05/08 07:28:04;;;;;;;12.50;11.18;;;;;;;;;;5054271;28;20450;-77
2023/05/08 07:30:37;;;;;;;13.88;12.02;;;;;;;;;;5048410;28;20056;-77
2023/05/08 07:33:09;;;;;;;;;;;;;;;;;;5051564;28;20099;-77
2023/05/08 07:35:37;;;;;;;15.93;10.98;;;;;;;;;;5053036;28;19905;-77
2023/05/08 07:38:03;;;;;;;14.88;11.25;;;;;;;;;;5059473;28;20079;-79
2023/05/08 07:40:29;;;;;;;14.25;10.68;;;;;;;;;;5059384;28;20038;-78
2023/05/08 07:42:55;;;;;;;11.82;10.23;;;;;;;;;;5056868;28;20089;-76
2023/05/08 07:45:21;;;;;;;12.13;9.75;;;;;;;;;;5054475;28;20025;-78
2023/05/08 07:47:57;;;;;;;11.05;9.95;;;;;;;;;;5054619;28;21011;-77
2023/05/08 07:50:24;;;;;;;12.00;10.23;;;;;;;;;;5056835;28;20081;-77
2023/05/08 07:52:50;;;;;;;12.77;9.45;;;;;;;;;;5060783;28;20052;-78
2023/05/08 07:55:17;;;;;;;13.48;9.07;;;;;;;;;;5060031;28;20033;-78
2023/05/08 07:57:43;;;;;;;9.52;8.52;;;;;;;;;;5058456;28;20029;-78
2023/05/08 08:00:14;;;;;;;11.30;8.32;;;;;;;;;;5057483;28;20155;-78
2023/05/08 08:02:44;;;;;;;13.48;9.82;;;;;;;;;;5060782;28;20026;-76
2023/05/08 08:05:10;;;;;;;11.73;8.27;;;;;;;;;;5060521;28;20017;-77
2023/05/08 08:07:37;;;;;;;10.60;8.85;;;;;;;;;;5060847;28;20055;-78
2023/05/08 08:10:06;;;;;;;10.30;8.77;;;;;;;;;;5060282;28;20017;-76
2023/05/08 08:12:32;;;;;;;11.95;8.35;;;;;;;;;;5062278;28;20013;-77
2023/05/08 08:14:58;;;;;;;14.00;8.93;;;;;;;;;;5062526;28;20036;-77
2023/05/08 08:17:24;;;;;;;10.70;9.18;;;;;;;;;;5046787;28;20025;-76
2023/05/08 08:19:50;;;;;;;8.23;7.38;;;;;;;;;;5062294;28;20033;-77
2023/05/08 08:22:16;;;;;;;11.98;7.65;;;;;;;;;;5059515;28;20056;-77
2023/05/08 08:24:42;;;;;;;8.85;7.30;;;;;;;;;;5054783;28;20041;-80
2023/05/08 08:27:08;;;;;;;9.27;7.28;;;;;;;;;;5054236;28;20469;-80
2023/05/08 08:29:34;;;;;;;11.88;7.43;;;;;;;;;;5054471;28;20025;-79
2023/05/08 08:32:02;;;;;;;8.70;6.32;;;;;;;;;;5055156;28;20044;-77
2023/05/08 08:34:28;;;;;;;8.45;7.00;;;;;;;;;;5057595;28;20111;-79
2023/05/08 08:36:54;;;;;;;10.50;7.43;;;;;;;;;;5052613;28;20029;-80
2023/05/08 08:39:20;;;;;;;9.32;7.18;;;;;;;;;;5054683;28;20029;-79
2023/05/08 08:41:46;;;;;;;12.23;7.68;;;;;;;;;;5049450;28;20030;-81
2023/05/08 08:44:12;;;;;;;9.40;7.30;;;;;;;;;;5053532;28;20032;-80
2023/05/08 08:46:43;;;;;;;8.40;7.40;;;;;;;;;;5051959;28;20033;-80
2023/05/08 08:49:09;;;;;;;8.75;7.38;;;;;;;;;;5054128;28;20032;-80
2023/05/08 08:51:39;;;;;;;10.95;7.75;;;;;;;;;;5053291;28;20044;-81
2023/05/08 08:54:08;;;;;;;10.27;7.75;;;;;;;;;;5055111;28;20036;-80
2023/05/08 08:56:35;;;;;;;9.60;7.30;;;;;;;;;;5052550;28;20094;-80
2023/05/08 08:59:02;;;;;;;9.20;7.85;;;;;;;;;;5052630;28;21839;-80
2023/05/08 09:01:29;;;;;;;8.63;7.40;;;;;;;;;;5051689;28;20272;-81
2023/05/08 09:03:58;;;;;;;11.82;7.80;;;;;;;;;;5054792;28;21674;-80
2023/05/08 09:06:26;;;;;;;13.68;8.25;;;;;;;;;;5054598;28;20422;-81
2023/05/08 09:08:55;;;;;;;8.73;7.38;;;;;;;;;;5047564;28;20029;-84
2023/05/08 09:11:21;;;;;;;11.40;8.63;;;;;;;;;;5045058;28;20049;-81
2023/05/08 09:13:47;;;;;;;10.32;7.25;;;;;;;;;;5051662;28;20037;-81
2023/05/08 09:16:13;;;;;;;11.30;8.88;;;;;;;;;;5049841;28;20080;-82
2023/05/08 09:18:39;;;;;;;14.30;9.35;;;;;;;;;;5050991;28;20026;-82
2023/05/08 09:21:05;;;;;;;11.55;8.00;;;;;;;;;;5045196;28;20035;-86
2023/05/08 09:23:31;;;;;;;10.02;7.90;;;;;;;;;;5045349;28;20021;-83
2023/05/08 09:25:57;;;;;;;11.70;8.95;;;;;;;;;;5045123;28;20083;-84
2023/05/08 09:28:25;;;;;;;17.48;10.82;;;;;;;;;;5043383;28;20595;-83
2023/05/08 09:30:55;;;;;;;15.40;9.70;;;;;;;;;;5044695;28;20029;-83
2023/05/08 09:33:21;;;;;;;15.18;9.43;;;;;;;;;;5045002;28;20033;-83
2023/05/08 09:35:48;;;;;;;11.38;8.02;;;;;;;;;;5043888;28;20047;-84
2023/05/08 09:38:35;;;;;;;10.30;7.65;;;;;;;;;;5045324;28;20087;-82
2023/05/08 09:41:08;;;;;;;8.60;7.40;;;;;;;;;;5045930;28;20033;-84
2023/05/08 09:43:34;;;;;;;8.63;7.22;;;;;;;;;;5044188;28;20485;-83
2023/05/08 09:46:21;;;;;;;10.23;7.28;;;;;;;;;;5046923;28;20025;-84
2023/05/08 09:48:47;;;;;;;9.60;7.70;;;;;;;;;;5051511;28;20040;-80
2023/05/08 09:51:13;;;;;;;9.10;7.80;;;;;;;;;;5048546;28;20017;-83
2023/05/08 09:53:40;;;;;;;8.63;7.53;;;;;;;;;;5045471;28;20037;-83
2023/05/08 09:56:08;;;;;;;9.15;6.93;;;;;;;;;;5041620;28;20022;-83
2023/05/08 09:58:41;;;;;;;10.77;7.53;;;;;;;;;;5046045;28;20071;-82
2023/05/08 10:01:08;;;;;;;9.85;7.97;;;;;;;;;;5042838;28;20128;-84
2023/05/08 10:03:47;;;;;;;11.18;7.55;;;;;;;;;;5044183;28;20112;-82
2023/05/08 10:06:13;;;;;;;12.32;8.50;;;;;;;;;;5053382;28;20074;-80
2023/05/08 10:08:39;;;;;;;11.75;7.93;;;;;;;;;;5054711;28;20026;-81
2023/05/08 10:11:15;;;;;;;9.20;7.22;;;;;;;;;;5059407;28;20049;-82
2023/05/08 10:13:42;;;;;;;11.00;7.40;;;;;;;;;;5051252;28;20060;-79
2023/05/08 10:16:11;;;;;;;15.40;8.00;;;;;;;;;;5050879;28;20037;-82
2023/05/08 10:18:39;;;;;;;8.48;7.15;;;;;;;;;;5046173;28;20034;-83
2023/05/08 10:21:07;;;;;;;8.60;7.25;;;;;;;;;;5049568;28;20026;-82
2023/05/08 10:23:34;;;;;;;9.38;7.20;;;;;;;;;;5046952;28;20044;-82
2023/05/08 10:26:08;;;;;;;10.38;8.13;;;;;;;;;;5046900;28;20022;-82
2023/05/08 10:28:43;;;;;;;10.75;8.02;;;;;;;;;;5052018;28;20515;-80
2023/05/08 10:31:11;;;;;;;10.15;8.38;;;;;;;;;;5047282;28;20109;-82
2023/05/08 10:33:40;;;;;;;9.75;7.70;;;;;;;;;;5045056;28;20038;-81
2023/05/08 10:36:06;;;;;;;13.82;8.75;;;;;;;;;;5052427;28;20035;-82
2023/05/08 10:38:32;;;;;;;10.95;7.82;;;;;;;;;;5045098;28;20052;-83
2023/05/08 10:41:01;;;;;;;10.10;8.32;;;;;;;;;;5048747;28;20047;-81
2023/05/08 10:43:29;;;;;;;9.10;8.20;;;;;;;;;;5042007;28;20041;-80
2023/05/08 10:45:57;;;;;;;11.02;7.70;;;;;;;;;;5051135;28;20021;-81
2023/05/08 10:48:23;;;;;;;10.43;8.10;;;;;;;;;;5049345;28;20036;-80
2023/05/08 10:51:08;;;;;;;11.68;8.15;;;;;;;;;;5052843;28;20025;-79
2023/05/08 10:53:34;;;;;;;9.23;7.93;;;;;;;;;;5054026;28;20029;-80
2023/05/08 10:56:01;;;;;;;11.48;7.95;;;;;;;;;;5054882;28;20082;-81
2023/05/08 10:58:31;;;;;;;10.48;8.32;;;;;;;;;;5053116;28;20075;-82
2023/05/08 11:01:04;;;;;;;9.02;7.80;;;;;;;;;;5053412;28;20033;-81
2023/05/08 11:03:30;;;;;;;10.05;8.65;;;;;;;;;;5053373;28;20029;-80
2023/05/08 11:05:57;;;;;;;10.20;7.28;;;;;;;;;;5038064;28;20095;-82
2023/05/08 11:08:26;;;;;;;11.48;8.13;;;;;;;;;;5053536;28;20837;-81
2023/05/08 11:11:03;;;;;;;11.07;8.73;;;;;;;;;;5053361;28;20037;-80
2023/05/08 11:13:29;;;;;;;10.30;8.15;;;;;;;;;;5054467;28;20356;-81
2023/05/08 11:15:55;;;;;;;13.73;8.10;;;;;;;;;;5054379;28;20063;-81
2023/05/08 11:18:23;;;;;;;9.13;8.13;;;;;;;;;;5054447;28;20028;-81
2023/05/08 11:20:59;;;;;;;9.43;7.88;;;;;;;;;;5051962;28;20029;-81
2023/05/08 11:23:31;;;;;;;11.40;7.63;;;;;;;;;;5046292;28;20022;-81
2023/05/08 11:25:57;;;;;;;;;;;;;;;;;;5049539;28;20059;-82
2023/05/08 11:28:23;;;;;;;12.93;8.32;;;;;;;;;;5034491;28;19909;-82
2023/05/08 11:30:55;;;;;;;9.88;7.90;;;;;;;;;;5043079;28;20061;-84
2023/05/08 11:33:21;;;;;;;9.40;8.40;;;;;;;;;;5039891;28;20052;-83
2023/05/08 11:35:51;;;;;;;10.23;7.65;;;;;;;;;;5041939;28;20437;-84
2023/05/08 11:38:17;;;;;;;10.48;7.55;;;;;;;;;;5038274;28;20047;-81
2023/05/08 11:40:47;;;;;;;15.75;8.27;;;;;;;;;;5039207;28;20029;-85
2023/05/08 11:43:19;;;;;;;12.80;8.70;;;;;;;;;;5042774;28;20076;-83
2023/05/08 11:45:46;;;;;;;12.45;8.18;;;;;;;;;;5039538;28;20466;-82
2023/05/08 11:48:13;;;;;;;9.13;8.23;;;;;;;;;;5041433;28;20040;-84
2023/05/08 11:50:39;;;;;;;14.48;8.73;;;;;;;;;;5039494;28;20030;-84
2023/05/08 11:53:06;;;;;;;11.75;7.53;;;;;;;;;;5041044;28;20130;-84
2023/05/08 11:55:32;;;;;;;14.20;8.13;;;;;;;;;;5042240;28;20025;-83
2023/05/08 11:57:58;;;;;;;8.73;7.78;;;;;;;;;;5041723;28;20052;-82
2023/05/08 12:00:24;;;;;;;12.77;8.05;;;;;;;;;;5041753;28;20064;-84
2023/05/08 12:02:50;;;;;;;11.50;7.68;;;;;;;;;;5044381;28;20029;-83
2023/05/08 12:05:25;;;;;;;13.02;7.32;;;;;;;;;;5038086;28;20025;-84
2023/05/08 12:07:51;;;;;;;9.55;7.60;;;;;;;;;;5044589;28;20029;-83
2023/05/08 12:10:17;;;;;;;11.07;6.95;;;;;;;;;;5038943;28;20037;-82
2023/05/08 12:12:44;;;;;;;8.80;6.93;;;;;;;;;;5042821;28;20039;-83
2023/05/08 12:15:11;;;;;;;9.68;6.40;;;;;;;;;;5040890;28;20036;-85
2023/05/08 12:17:37;;;;;;;12.23;6.43;;;;;;;;;;5041674;28;20590;-84
2023/05/08 12:20:11;;;;;;;10.25;5.78;;;;;;;;;;5042708;28;20022;-85
2023/05/08 12:22:37;;;;;;;6.00;5.30;;;;;;;;;;5043853;28;20021;-82
2023/05/08 12:25:05;;;;;;;7.35;5.50;;;;;;;;;;5040362;28;20028;-84
2023/05/08 12:27:31;;;;;;;6.63;5.63;;;;;;;;;;5041492;28;20064;-84
2023/05/08 12:29:57;;;;;;;7.53;5.78;;;;;;;;;;5038066;28;20029;-82
2023/05/08 12:32:26;;;;;;;6.47;5.00;;;;;;;;;;5040412;28;20029;-84
2023/05/08 12:34:52;;;;;;;8.73;4.90;;;;;;;;;;5042743;28;20067;-85
2023/05/08 12:37:27;;;;;;;9.65;5.60;;;;;;;;;;5041847;28;20045;-84
2023/05/08 12:39:53;;;;;;;8.65;6.20;;;;;;;;;;5040350;28;20121;-84
2023/05/08 12:42:20;;;;;;;9.73;6.72;;;;;;;;;;5037881;28;20025;-84
2023/05/08 12:44:52;;;;;;;7.25;5.80;;;;;;;;;;5045034;28;20112;-83
2023/05/08 12:47:19;;;;;;;5.05;4.53;;;;;;;;;;5043411;28;20025;-83
2023/05/08 12:49:48;;;;;;;6.35;5.28;;;;;;;;;;5045217;28;20021;-83
2023/05/08 12:52:14;;;;;;;9.38;5.60;;;;;;;;;;5045236;28;20041;-84
2023/05/08 12:54:47;;;;;;;7.55;5.40;;;;;;;;;;5042044;28;20057;-84
2023/05/08 12:57:13;;;;;;;6.20;5.60;;;;;;;;;;5044155;28;20028;-83
2023/05/08 12:59:40;;;;;;;7.57;6.53;;;;;;;;;;5042447;28;20048;-85
2023/05/08 13:02:16;;;;;;;7.78;5.80;;;;;;;;;;5045545;28;20022;-82
2023/05/08 13:04:42;;;;;;;11.43;6.20;;;;;;;;;;5040877;28;20036;-84
2023/05/08 13:07:09;;;;;;;7.47;6.05;;;;;;;;;;5042961;28;20033;-84
2023/05/08 13:09:35;;;;;;;6.03;5.43;;;;;;;;;;5043903;28;20079;-83
2023/05/08 13:12:01;;;;;;;7.93;5.85;;;;;;;;;;5046731;28;20453;-85
2023/05/08 13:14:27;;;;;;;7.13;6.03;;;;;;;;;;5039393;28;20026;-83
2023/05/08 13:16:53;;;;;;;6.22;5.35;;;;;;;;;;5040551;28;20068;-84
2023/05/08 13:19:19;;;;;;;5.10;4.65;;;;;;;;;;5040965;28;20037;-84
2023/05/08 13:21:46;;;;;;;8.38;6.05;;;;;;;;;;5040700;28;20022;-84
2023/05/08 13:24:15;;;;;;;5.10;4.60;;;;;;;;;;5039022;28;20041;-84
2023/05/08 13:26:41;;;;;;;6.82;4.63;;;;;;;;;;5042148;28;20408;-83
2023/05/08 13:29:07;;;;;;;4.95;4.45;;;;;;;;;;5038355;28;20152;-84
2023/05/08 13:31:33;;;;;;;13.57;5.93;;;;;;;;;;5042067;28;20453;-83
2023/05/08 13:33:59;;;;;;;6.45;5.38;;;;;;;;;;5040766;28;20021;-84
2023/05/08 13:36:26;;;;;;;7.47;5.68;;;;;;;;;;5039730;28;20021;-84
2023/05/08 13:38:53;;;;;;;12.60;6.32;;;;;;;;;;5041006;28;20049;-84
2023/05/08 13:41:19;;;;;;;9.10;5.47;;;;;;;;;;5040077;28;20021;-83
2023/05/08 13:43:46;;;;;;;7.78;5.90;;;;;;;;;;5042214;28;20373;-82
2023/05/08 13:46:13;;;;;;;8.63;6.85;;;;;;;;;;5043299;28;20176;-81
2023/05/08 13:48:39;;;;;;;8.27;6.15;;;;;;;;;;5045789;28;20025;-84
2023/05/08 13:51:05;;;;;;;7.78;6.40;;;;;;;;;;5046468;28;20052;-84
2023/05/08 13:53:31;;;;;;;6.82;6.13;;;;;;;;;;5047471;28;20025;-82
2023/05/08 13:55:57;;;;;;;8.07;5.78;;;;;;;;;;5053942;28;20029;-84
2023/05/08 13:58:22;;;;;;;6.53;5.93;;;;;;;;;;5043526;28;20049;-83
2023/05/08 14:00:48;;;;;;;7.15;6.15;;;;;;;;;;5042336;28;20441;-84
2023/05/08 14:03:14;;;;;;;11.77;7.72;;;;;;;;;;5041814;28;20040;-84
2023/05/08 14:05:40;;;;;;;7.45;6.43;;;;;;;;;;5045968;28;20041;-84
2023/05/08 14:08:06;;;;;;;6.65;5.78;;;;;;;;;;5043037;28;20035;-83
2023/05/08 14:10:37;;;;;;;6.38;5.78;;;;;;;;;;5043496;28;20025;-83
2023/05/08 14:13:03;;;;;;;10.43;6.50;;;;;;;;;;5044366;28;20040;-82
2023/05/08 14:15:29;;;;;;;8.02;7.13;;;;;;;;;;5046148;28;20088;-84
2023/05/08 14:17:55;;;;;;;6.93;5.82;;;;;;;;;;5041666;28;20120;-84
2023/05/08 14:20:21;;;;;;;7.20;6.50;;;;;;;;;;5040844;28;21721;-84
2023/05/08 14:22:47;;;;;;;9.73;5.88;;;;;;;;;;5043348;28;20037;-84
2023/05/08 14:25:13;;;;;;;7.22;6.05;;;;;;;;;;5046067;28;20021;-83
2023/05/08 14:27:41;;;;;;;6.78;6.07;;;;;;;;;;5044222;28;20440;-84
2023/05/08 14:30:10;;;;;;;6.60;5.63;;;;;;;;;;5041201;28;20508;-83
2023/05/08 14:32:36;;;;;;;6.07;5.38;;;;;;;;;;5045802;28;20052;-85
2023/05/08 14:35:02;;;;;;;12.10;7.32;;;;;;;;;;5045172;28;20091;-83